sensor_id;sensor_type;location;lat;lon;timestamp;P1;durP1;ratioP1;P2;durP2;ratioP2
2854;SDS011;1435;49.472;10.940;2022-09-25T00:00:45;15.27;;;12.80;;
2854;SDS011;1435;49.472;10.940;2022-09-25T00:05:48;13.07;;;11.70;;
2854;SDS011;1435;49.472;10.940;2022-09-25T00:10:52;14.67;;;12.97;;
2854;SDS011;1435;49.472;10.940;2022-09-25T00:15:54;14.67;;;13.43;;
2854;SDS011;1435;49.472;10.940;2022-09-25T00:20:59;13.73;;;12.20;;
2854;SDS011;1435;49.472;10.940;2022-09-25T00:26:02;15.50;;;13.90;;
2854;SDS011;1435;49.472;10.940;2022-09-25T00:31:06;14.53;;;12.97;;
2854;SDS011;1435;49.472;10.940;2022-09-25T00:36:09;15.30;;;13.80;;
2854;SDS011;1435;49.472;10.940;2022-09-25T00:41:13;16.70;;;15.10;;
2854;SDS011;1435;49.472;10.940;2022-09-25T00:46:17;14.47;;;12.90;;
2854;SDS011;1435;49.472;10.940;2022-09-25T00:51:22;15.33;;;13.80;;
2854;SDS011;1435;49.472;10.940;2022-09-25T00:56:30;14.87;;;13.20;;
2854;SDS011;1435;49.472;10.940;2022-09-25T01:01:36;16.97;;;15.30;;
2854;SDS011;1435;49.472;10.940;2022-09-25T01:06:38;19.80;;;17.90;;
2854;SDS011;1435;49.472;10.940;2022-09-25T01:11:42;21.73;;;19.67;;
2854;SDS011;1435;49.472;10.940;2022-09-25T01:16:45;21.10;;;19.07;;
2854;SDS011;1435;49.472;10.940;2022-09-25T01:21:57;22.37;;;20.10;;
2854;SDS011;1435;49.472;10.940;2022-09-25T01:32:53;24.50;;;22.00;;
2854;SDS011;1435;49.472;10.940;2022-09-25T01:38:00;22.50;;;20.13;;
2854;SDS011;1435;49.472;10.940;2022-09-25T01:43:08;22.33;;;20.10;;
2854;SDS011;1435;49.472;10.940;2022-09-25T01:48:14;22.30;;;20.10;;
2854;SDS011;1435;49.472;10.940;2022-09-25T01:53:20;22.97;;;20.60;;
2854;SDS011;1435;49.472;10.940;2022-09-25T01:58:26;23.00;;;20.60;;
2854;SDS011;1435;49.472;10.940;2022-09-25T02:03:33;23.30;;;20.90;;
2854;SDS011;1435;49.472;10.940;2022-09-25T02:08:39;21.90;;;19.67;;
2854;SDS011;1435;49.472;10.940;2022-09-25T02:13:46;21.10;;;19.00;;
2854;SDS011;1435;49.472;10.940;2022-09-25T02:18:51;22.93;;;20.53;;
2854;SDS011;1435;49.472;10.940;2022-09-25T02:24:13;20.80;;;18.70;;
2854;SDS011;1435;49.472;10.940;2022-09-25T02:29:20;22.33;;;20.17;;
2854;SDS011;1435;49.472;10.940;2022-09-25T02:34:24;20.20;;;18.00;;
2854;SDS011;1435;49.472;10.940;2022-09-25T02:39:27;19.93;;;17.83;;
2854;SDS011;1435;49.472;10.940;2022-09-25T02:44:32;21.70;;;18.97;;
2854;SDS011;1435;49.472;10.940;2022-09-25T02:49:46;22.33;;;18.47;;
2854;SDS011;1435;49.472;10.940;2022-09-25T02:54:52;20.00;;;18.00;;
2854;SDS011;1435;49.472;10.940;2022-09-25T02:59:58;19.40;;;17.40;;
2854;SDS011;1435;49.472;10.940;2022-09-25T03:05:06;21.33;;;19.13;;
2854;SDS011;1435;49.472;10.940;2022-09-25T03:10:12;22.00;;;19.80;;
2854;SDS011;1435;49.472;10.940;2022-09-25T03:15:15;23.40;;;20.33;;
2854;SDS011;1435;49.472;10.940;2022-09-25T03:20:19;24.47;;;21.43;;
2854;SDS011;1435;49.472;10.940;2022-09-25T03:25:20;24.03;;;21.40;;
2854;SDS011;1435;49.472;10.940;2022-09-25T03:30:22;23.60;;;21.17;;
2854;SDS011;1435;49.472;10.940;2022-09-25T03:35:25;23.40;;;20.97;;
2854;SDS011;1435;49.472;10.940;2022-09-25T03:40:27;24.10;;;21.20;;
2854;SDS011;1435;49.472;10.940;2022-09-25T03:45:29;24.13;;;21.70;;
2854;SDS011;1435;49.472;10.940;2022-09-25T03:50:32;23.50;;;21.10;;
2854;SDS011;1435;49.472;10.940;2022-09-25T03:55:34;22.70;;;20.30;;
2854;SDS011;1435;49.472;10.940;2022-09-25T04:00:36;22.00;;;19.70;;
2854;SDS011;1435;49.472;10.940;2022-09-25T04:05:39;22.63;;;19.37;;
2854;SDS011;1435;49.472;10.940;2022-09-25T04:10:42;23.07;;;20.63;;
2854;SDS011;1435;49.472;10.940;2022-09-25T04:15:44;21.17;;;18.97;;
2854;SDS011;1435;49.472;10.940;2022-09-25T04:20:47;24.13;;;20.80;;
2854;SDS011;1435;49.472;10.940;2022-09-25T04:25:49;23.23;;;20.77;;
2854;SDS011;1435;49.472;10.940;2022-09-25T04:30:50;24.90;;;22.10;;
2854;SDS011;1435;49.472;10.940;2022-09-25T04:35:54;24.87;;;20.37;;
2854;SDS011;1435;49.472;10.940;2022-09-25T04:40:56;23.30;;;20.20;;
2854;SDS011;1435;49.472;10.940;2022-09-25T04:45:59;24.80;;;22.10;;
2854;SDS011;1435;49.472;10.940;2022-09-25T04:51:03;24.53;;;20.30;;
2854;SDS011;1435;49.472;10.940;2022-09-25T04:56:06;30.37;;;23.33;;
2854;SDS011;1435;49.472;10.940;2022-09-25T05:01:10;27.90;;;22.17;;
2854;SDS011;1435;49.472;10.940;2022-09-25T05:06:13;26.10;;;22.97;;
2854;SDS011;1435;49.472;10.940;2022-09-25T05:11:15;27.87;;;22.13;;
2854;SDS011;1435;49.472;10.940;2022-09-25T05:16:17;23.70;;;21.00;;
2854;SDS011;1435;49.472;10.940;2022-09-25T05:21:20;28.40;;;23.30;;
2854;SDS011;1435;49.472;10.940;2022-09-25T05:26:22;29.53;;;22.47;;
2854;SDS011;1435;49.472;10.940;2022-09-25T05:31:25;28.40;;;23.27;;
2854;SDS011;1435;49.472;10.940;2022-09-25T05:36:28;27.67;;;22.50;;
2854;SDS011;1435;49.472;10.940;2022-09-25T05:41:30;29.67;;;22.90;;
2854;SDS011;1435;49.472;10.940;2022-09-25T05:46:35;30.53;;;22.83;;
2854;SDS011;1435;49.472;10.940;2022-09-25T05:51:38;32.10;;;23.63;;
2854;SDS011;1435;49.472;10.940;2022-09-25T05:56:40;30.40;;;22.40;;
2854;SDS011;1435;49.472;10.940;2022-09-25T06:01:41;31.90;;;22.90;;
2854;SDS011;1435;49.472;10.940;2022-09-25T06:06:45;35.10;;;24.00;;
2854;SDS011;1435;49.472;10.940;2022-09-25T06:11:47;33.13;;;23.63;;
2854;SDS011;1435;49.472;10.940;2022-09-25T06:16:50;35.83;;;23.63;;
2854;SDS011;1435;49.472;10.940;2022-09-25T06:21:53;35.77;;;24.03;;
2854;SDS011;1435;49.472;10.940;2022-09-25T06:26:55;36.80;;;25.90;;
2854;SDS011;1435;49.472;10.940;2022-09-25T06:31:57;38.87;;;26.70;;
2854;SDS011;1435;49.472;10.940;2022-09-25T06:37:00;32.80;;;23.20;;
2854;SDS011;1435;49.472;10.940;2022-09-25T06:42:01;38.53;;;25.70;;
2854;SDS011;1435;49.472;10.940;2022-09-25T06:47:03;40.00;;;24.87;;
2854;SDS011;1435;49.472;10.940;2022-09-25T06:52:06;36.73;;;25.83;;
2854;SDS011;1435;49.472;10.940;2022-09-25T06:57:08;44.07;;;27.23;;
2854;SDS011;1435;49.472;10.940;2022-09-25T07:02:11;35.53;;;24.03;;
2854;SDS011;1435;49.472;10.940;2022-09-25T07:07:31;43.30;;;26.37;;
2854;SDS011;1435;49.472;10.940;2022-09-25T07:12:33;37.67;;;26.10;;
2854;SDS011;1435;49.472;10.940;2022-09-25T07:17:35;38.63;;;25.97;;
2854;SDS011;1435;49.472;10.940;2022-09-25T07:22:38;35.17;;;24.93;;
2854;SDS011;1435;49.472;10.940;2022-09-25T07:27:40;38.47;;;25.57;;
2854;SDS011;1435;49.472;10.940;2022-09-25T07:32:42;34.67;;;25.10;;
2854;SDS011;1435;49.472;10.940;2022-09-25T07:37:45;33.73;;;23.90;;
2854;SDS011;1435;49.472;10.940;2022-09-25T07:42:47;34.90;;;24.77;;
2854;SDS011;1435;49.472;10.940;2022-09-25T07:47:49;34.90;;;22.60;;
2854;SDS011;1435;49.472;10.940;2022-09-25T07:52:52;34.23;;;22.17;;
2854;SDS011;1435;49.472;10.940;2022-09-25T07:57:55;34.50;;;24.00;;
2854;SDS011;1435;49.472;10.940;2022-09-25T08:02:57;31.40;;;24.20;;
2854;SDS011;1435;49.472;10.940;2022-09-25T08:08:01;38.70;;;26.70;;
2854;SDS011;1435;49.472;10.940;2022-09-25T08:13:03;38.90;;;24.60;;
2854;SDS011;1435;49.472;10.940;2022-09-25T08:18:04;33.97;;;23.87;;
2854;SDS011;1435;49.472;10.940;2022-09-25T08:23:07;30.50;;;24.10;;
2854;SDS011;1435;49.472;10.940;2022-09-25T08:28:09;35.33;;;23.87;;
2854;SDS011;1435;49.472;10.940;2022-09-25T08:33:11;34.50;;;21.47;;
2854;SDS011;1435;49.472;10.940;2022-09-25T08:38:14;30.13;;;20.60;;
2854;SDS011;1435;49.472;10.940;2022-09-25T08:43:18;29.40;;;19.33;;
2854;SDS011;1435;49.472;10.940;2022-09-25T08:48:25;27.37;;;20.53;;
2854;SDS011;1435;49.472;10.940;2022-09-25T08:53:49;27.50;;;20.40;;
2854;SDS011;1435;49.472;10.940;2022-09-25T08:59:00;30.43;;;21.50;;
2854;SDS011;1435;49.472;10.940;2022-09-25T09:04:12;30.27;;;21.20;;
2854;SDS011;1435;49.472;10.940;2022-09-25T09:09:20;29.80;;;21.33;;
2854;SDS011;1435;49.472;10.940;2022-09-25T09:14:26;31.20;;;20.67;;
2854;SDS011;1435;49.472;10.940;2022-09-25T09:19:31;29.17;;;20.80;;
2854;SDS011;1435;49.472;10.940;2022-09-25T09:24:37;25.70;;;19.80;;
2854;SDS011;1435;49.472;10.940;2022-09-25T09:29:57;20.63;;;15.77;;
2854;SDS011;1435;49.472;10.940;2022-09-25T09:35:11;24.20;;;18.73;;
2854;SDS011;1435;49.472;10.940;2022-09-25T09:46:02;19.53;;;14.80;;
2854;SDS011;1435;49.472;10.940;2022-09-25T09:51:14;19.57;;;14.93;;
2854;SDS011;1435;49.472;10.940;2022-09-25T09:56:23;20.13;;;15.00;;
2854;SDS011;1435;49.472;10.940;2022-09-25T10:01:30;18.77;;;14.73;;
2854;SDS011;1435;49.472;10.940;2022-09-25T10:06:35;19.90;;;15.20;;
2854;SDS011;1435;49.472;10.940;2022-09-25T10:11:40;45.57;;;30.57;;
2854;SDS011;1435;49.472;10.940;2022-09-25T10:16:44;18.87;;;16.37;;
2854;SDS011;1435;49.472;10.940;2022-09-25T10:21:48;17.00;;;13.80;;
2854;SDS011;1435;49.472;10.940;2022-09-25T10:26:55;16.60;;;13.33;;
2854;SDS011;1435;49.472;10.940;2022-09-25T10:31:59;15.67;;;11.57;;
2854;SDS011;1435;49.472;10.940;2022-09-25T10:37:12;15.70;;;11.10;;
2854;SDS011;1435;49.472;10.940;2022-09-25T10:42:33;16.17;;;11.90;;
2854;SDS011;1435;49.472;10.940;2022-09-25T10:47:38;12.07;;;10.50;;
2854;SDS011;1435;49.472;10.940;2022-09-25T10:53:02;8.93;;;8.07;;
2854;SDS011;1435;49.472;10.940;2022-09-25T10:58:12;11.87;;;7.53;;
2854;SDS011;1435;49.472;10.940;2022-09-25T11:03:20;11.70;;;9.03;;
2854;SDS011;1435;49.472;10.940;2022-09-25T11:08:24;8.53;;;7.67;;
2854;SDS011;1435;49.472;10.940;2022-09-25T11:13:32;9.97;;;8.27;;
2854;SDS011;1435;49.472;10.940;2022-09-25T11:18:44;9.50;;;7.50;;
2854;SDS011;1435;49.472;10.940;2022-09-25T11:24:00;12.10;;;10.50;;
2854;SDS011;1435;49.472;10.940;2022-09-25T11:29:11;12.83;;;11.53;;
2854;SDS011;1435;49.472;10.940;2022-09-25T11:34:22;11.43;;;10.20;;
2854;SDS011;1435;49.472;10.940;2022-09-25T11:39:34;14.93;;;12.13;;
2854;SDS011;1435;49.472;10.940;2022-09-25T11:45:03;13.87;;;11.77;;
2854;SDS011;1435;49.472;10.940;2022-09-25T11:50:10;16.27;;;13.23;;
2854;SDS011;1435;49.472;10.940;2022-09-25T11:55:31;15.33;;;12.90;;
2854;SDS011;1435;49.472;10.940;2022-09-25T12:00:47;15.93;;;13.20;;
2854;SDS011;1435;49.472;10.940;2022-09-25T12:05:59;17.63;;;14.80;;
2854;SDS011;1435;49.472;10.940;2022-09-25T12:11:22;17.63;;;15.10;;
2854;SDS011;1435;49.472;10.940;2022-09-25T12:16:30;15.03;;;13.30;;
2854;SDS011;1435;49.472;10.940;2022-09-25T12:21:40;14.90;;;13.40;;
2854;SDS011;1435;49.472;10.940;2022-09-25T12:26:49;17.70;;;15.90;;
2854;SDS011;1435;49.472;10.940;2022-09-25T12:31:59;15.03;;;13.53;;
2854;SDS011;1435;49.472;10.940;2022-09-25T12:37:06;13.80;;;12.43;;
2854;SDS011;1435;49.472;10.940;2022-09-25T12:42:20;13.70;;;11.07;;
2854;SDS011;1435;49.472;10.940;2022-09-25T12:47:28;9.50;;;8.53;;
2854;SDS011;1435;49.472;10.940;2022-09-25T12:52:36;6.50;;;5.90;;
2854;SDS011;1435;49.472;10.940;2022-09-25T12:57:41;8.90;;;6.97;;
2854;SDS011;1435;49.472;10.940;2022-09-25T13:02:51;7.10;;;6.13;;
2854;SDS011;1435;49.472;10.940;2022-09-25T13:07:58;12.70;;;7.00;;
2854;SDS011;1435;49.472;10.940;2022-09-25T13:13:09;7.87;;;6.63;;
2854;SDS011;1435;49.472;10.940;2022-09-25T13:18:20;8.00;;;6.23;;
2854;SDS011;1435;49.472;10.940;2022-09-25T13:23:26;7.23;;;5.90;;
2854;SDS011;1435;49.472;10.940;2022-09-25T13:28:32;6.93;;;6.33;;
2854;SDS011;1435;49.472;10.940;2022-09-25T13:33:40;8.37;;;6.60;;
2854;SDS011;1435;49.472;10.940;2022-09-25T13:38:44;7.57;;;6.77;;
2854;SDS011;1435;49.472;10.940;2022-09-25T13:50:15;13.83;;;7.60;;
2854;SDS011;1435;49.472;10.940;2022-09-25T13:55:19;7.37;;;6.67;;
2854;SDS011;1435;49.472;10.940;2022-09-25T14:00:22;8.63;;;7.83;;
2854;SDS011;1435;49.472;10.940;2022-09-25T14:05:26;11.10;;;9.53;;
2854;SDS011;1435;49.472;10.940;2022-09-25T14:10:35;9.77;;;8.87;;
2854;SDS011;1435;49.472;10.940;2022-09-25T14:15:37;10.50;;;8.10;;
2854;SDS011;1435;49.472;10.940;2022-09-25T14:20:42;8.60;;;7.77;;
2854;SDS011;1435;49.472;10.940;2022-09-25T14:25:45;9.60;;;8.70;;
2854;SDS011;1435;49.472;10.940;2022-09-25T14:30:51;16.87;;;11.93;;
2854;SDS011;1435;49.472;10.940;2022-09-25T14:36:16;12.80;;;11.07;;
2854;SDS011;1435;49.472;10.940;2022-09-25T14:41:37;12.07;;;9.83;;
2854;SDS011;1435;49.472;10.940;2022-09-25T14:46:52;11.20;;;9.90;;
2854;SDS011;1435;49.472;10.940;2022-09-25T14:51:58;8.43;;;7.63;;
2854;SDS011;1435;49.472;10.940;2022-09-25T14:57:02;11.73;;;10.57;;
2854;SDS011;1435;49.472;10.940;2022-09-25T15:02:09;10.97;;;9.87;;
2854;SDS011;1435;49.472;10.940;2022-09-25T15:07:21;10.80;;;9.40;;
2854;SDS011;1435;49.472;10.940;2022-09-25T15:12:24;11.77;;;10.47;;
2854;SDS011;1435;49.472;10.940;2022-09-25T15:17:28;12.70;;;10.90;;
2854;SDS011;1435;49.472;10.940;2022-09-25T15:22:33;9.90;;;8.83;;
2854;SDS011;1435;49.472;10.940;2022-09-25T15:27:38;9.70;;;8.80;;
2854;SDS011;1435;49.472;10.940;2022-09-25T15:32:42;9.87;;;8.97;;
2854;SDS011;1435;49.472;10.940;2022-09-25T15:37:48;10.60;;;8.80;;
2854;SDS011;1435;49.472;10.940;2022-09-25T15:42:50;12.53;;;11.30;;
2854;SDS011;1435;49.472;10.940;2022-09-25T15:47:51;12.47;;;11.17;;
2854;SDS011;1435;49.472;10.940;2022-09-25T15:52:56;12.57;;;11.30;;
2854;SDS011;1435;49.472;10.940;2022-09-25T15:58:04;11.33;;;9.70;;
2854;SDS011;1435;49.472;10.940;2022-09-25T16:03:13;14.77;;;13.27;;
2854;SDS011;1435;49.472;10.940;2022-09-25T16:08:36;13.43;;;12.10;;
2854;SDS011;1435;49.472;10.940;2022-09-25T16:13:39;12.30;;;11.10;;
2854;SDS011;1435;49.472;10.940;2022-09-25T16:18:42;11.53;;;10.40;;
2854;SDS011;1435;49.472;10.940;2022-09-25T16:23:51;12.80;;;11.60;;
2854;SDS011;1435;49.472;10.940;2022-09-25T16:29:05;12.27;;;11.07;;
2854;SDS011;1435;49.472;10.940;2022-09-25T16:34:23;15.90;;;14.17;;
2854;SDS011;1435;49.472;10.940;2022-09-25T16:39:29;17.30;;;14.90;;
2854;SDS011;1435;49.472;10.940;2022-09-25T16:44:36;15.60;;;13.37;;
2854;SDS011;1435;49.472;10.940;2022-09-25T16:49:45;14.03;;;12.60;;
2854;SDS011;1435;49.472;10.940;2022-09-25T16:54:50;13.50;;;11.73;;
2854;SDS011;1435;49.472;10.940;2022-09-25T16:59:53;12.70;;;11.40;;
2854;SDS011;1435;49.472;10.940;2022-09-25T17:04:55;12.63;;;11.30;;
2854;SDS011;1435;49.472;10.940;2022-09-25T17:09:58;11.77;;;10.53;;
2854;SDS011;1435;49.472;10.940;2022-09-25T17:15:01;9.73;;;8.73;;
2854;SDS011;1435;49.472;10.940;2022-09-25T17:20:03;9.50;;;8.60;;
2854;SDS011;1435;49.472;10.940;2022-09-25T17:25:17;6.50;;;5.90;;
2854;SDS011;1435;49.472;10.940;2022-09-25T17:30:25;6.93;;;6.23;;
2854;SDS011;1435;49.472;10.940;2022-09-25T17:35:29;7.77;;;6.97;;
2854;SDS011;1435;49.472;10.940;2022-09-25T17:40:39;7.27;;;6.57;;
2854;SDS011;1435;49.472;10.940;2022-09-25T17:45:44;7.90;;;7.20;;
2854;SDS011;1435;49.472;10.940;2022-09-25T17:50:48;6.77;;;6.13;;
2854;SDS011;1435;49.472;10.940;2022-09-25T17:55:52;7.10;;;6.50;;
2854;SDS011;1435;49.472;10.940;2022-09-25T18:00:55;7.70;;;7.07;;
2854;SDS011;1435;49.472;10.940;2022-09-25T18:05:59;8.50;;;6.93;;
2854;SDS011;1435;49.472;10.940;2022-09-25T18:11:02;6.07;;;5.57;;
2854;SDS011;1435;49.472;10.940;2022-09-25T18:16:04;6.43;;;5.90;;
2854;SDS011;1435;49.472;10.940;2022-09-25T18:21:07;5.33;;;4.93;;
2854;SDS011;1435;49.472;10.940;2022-09-25T18:26:39;5.50;;;4.90;;
2854;SDS011;1435;49.472;10.940;2022-09-25T18:31:42;5.20;;;4.80;;
2854;SDS011;1435;49.472;10.940;2022-09-25T18:36:43;5.10;;;4.70;;
2854;SDS011;1435;49.472;10.940;2022-09-25T18:41:46;7.73;;;6.33;;
2854;SDS011;1435;49.472;10.940;2022-09-25T18:46:49;5.57;;;5.07;;
2854;SDS011;1435;49.472;10.940;2022-09-25T18:51:51;6.30;;;4.20;;
2854;SDS011;1435;49.472;10.940;2022-09-25T18:56:54;5.53;;;5.03;;
2854;SDS011;1435;49.472;10.940;2022-09-25T19:01:57;5.50;;;5.00;;
2854;SDS011;1435;49.472;10.940;2022-09-25T19:06:59;5.37;;;4.87;;
2854;SDS011;1435;49.472;10.940;2022-09-25T19:12:02;4.80;;;4.40;;
2854;SDS011;1435;49.472;10.940;2022-09-25T19:17:06;4.70;;;4.30;;
2854;SDS011;1435;49.472;10.940;2022-09-25T19:22:11;4.57;;;4.27;;
2854;SDS011;1435;49.472;10.940;2022-09-25T19:27:17;5.23;;;4.73;;
2854;SDS011;1435;49.472;10.940;2022-09-25T19:32:19;5.73;;;5.10;;
2854;SDS011;1435;49.472;10.940;2022-09-25T19:37:21;5.70;;;5.20;;
2854;SDS011;1435;49.472;10.940;2022-09-25T19:42:28;4.43;;;4.13;;
2854;SDS011;1435;49.472;10.940;2022-09-25T19:47:32;4.30;;;3.90;;
2854;SDS011;1435;49.472;10.940;2022-09-25T19:52:34;4.50;;;4.10;;
2854;SDS011;1435;49.472;10.940;2022-09-25T19:57:37;4.57;;;4.17;;
2854;SDS011;1435;49.472;10.940;2022-09-25T20:02:39;3.00;;;2.80;;
2854;SDS011;1435;49.472;10.940;2022-09-25T20:07:45;4.10;;;3.37;;
2854;SDS011;1435;49.472;10.940;2022-09-25T20:12:48;3.90;;;3.50;;
2854;SDS011;1435;49.472;10.940;2022-09-25T20:17:49;3.67;;;3.40;;
2854;SDS011;1435;49.472;10.940;2022-09-25T20:22:53;3.53;;;3.20;;
2854;SDS011;1435;49.472;10.940;2022-09-25T20:27:56;4.27;;;3.87;;
2854;SDS011;1435;49.472;10.940;2022-09-25T20:32:59;3.70;;;3.40;;
2854;SDS011;1435;49.472;10.940;2022-09-25T20:38:01;3.70;;;3.50;;
2854;SDS011;1435;49.472;10.940;2022-09-25T20:43:04;3.50;;;3.20;;
2854;SDS011;1435;49.472;10.940;2022-09-25T20:48:05;4.73;;;4.00;;
2854;SDS011;1435;49.472;10.940;2022-09-25T20:53:07;4.50;;;4.10;;
2854;SDS011;1435;49.472;10.940;2022-09-25T20:58:10;4.50;;;4.10;;
2854;SDS011;1435;49.472;10.940;2022-09-25T21:03:12;5.20;;;4.70;;
2854;SDS011;1435;49.472;10.940;2022-09-25T21:08:14;5.10;;;4.60;;
2854;SDS011;1435;49.472;10.940;2022-09-25T21:13:17;4.53;;;4.17;;
2854;SDS011;1435;49.472;10.940;2022-09-25T21:18:18;5.33;;;4.93;;
2854;SDS011;1435;49.472;10.940;2022-09-25T21:23:20;6.10;;;5.50;;
2854;SDS011;1435;49.472;10.940;2022-09-25T21:28:23;7.63;;;5.73;;
2854;SDS011;1435;49.472;10.940;2022-09-25T21:33:25;7.20;;;6.50;;
2854;SDS011;1435;49.472;10.940;2022-09-25T21:38:26;7.63;;;6.60;;
2854;SDS011;1435;49.472;10.940;2022-09-25T21:43:30;7.47;;;6.77;;
2854;SDS011;1435;49.472;10.940;2022-09-25T21:48:34;6.77;;;6.07;;
2854;SDS011;1435;49.472;10.940;2022-09-25T21:53:36;7.40;;;6.80;;
2854;SDS011;1435;49.472;10.940;2022-09-25T21:58:39;7.43;;;6.73;;
2854;SDS011;1435;49.472;10.940;2022-09-25T22:03:42;8.90;;;6.83;;
2854;SDS011;1435;49.472;10.940;2022-09-25T22:08:48;8.40;;;6.67;;
2854;SDS011;1435;49.472;10.940;2022-09-25T22:13:53;8.03;;;7.27;;
2854;SDS011;1435;49.472;10.940;2022-09-25T22:18:57;8.70;;;7.73;;
2854;SDS011;1435;49.472;10.940;2022-09-25T22:24:00;7.83;;;7.13;;
2854;SDS011;1435;49.472;10.940;2022-09-25T22:29:03;7.73;;;7.03;;
2854;SDS011;1435;49.472;10.940;2022-09-25T22:34:06;9.80;;;8.17;;
2854;SDS011;1435;49.472;10.940;2022-09-25T22:39:14;8.67;;;7.83;;
2854;SDS011;1435;49.472;10.940;2022-09-25T22:44:19;9.67;;;8.40;;
2854;SDS011;1435;49.472;10.940;2022-09-25T22:49:21;7.03;;;6.33;;
2854;SDS011;1435;49.472;10.940;2022-09-25T22:54:23;6.80;;;6.20;;
2854;SDS011;1435;49.472;10.940;2022-09-25T22:59:26;6.97;;;6.27;;
2854;SDS011;1435;49.472;10.940;2022-09-25T23:04:28;7.17;;;6.50;;
2854;SDS011;1435;49.472;10.940;2022-09-25T23:09:29;7.00;;;6.33;;
2854;SDS011;1435;49.472;10.940;2022-09-25T23:14:32;7.13;;;6.10;;
2854;SDS011;1435;49.472;10.940;2022-09-25T23:19:34;10.73;;;6.30;;
2854;SDS011;1435;49.472;10.940;2022-09-25T23:24:36;6.93;;;5.77;;
2854;SDS011;1435;49.472;10.940;2022-09-25T23:29:39;6.00;;;5.40;;
2854;SDS011;1435;49.472;10.940;2022-09-25T23:34:40;5.63;;;5.10;;
2854;SDS011;1435;49.472;10.940;2022-09-25T23:39:42;8.33;;;5.23;;
2854;SDS011;1435;49.472;10.940;2022-09-25T23:44:45;8.00;;;7.20;;
2854;SDS011;1435;49.472;10.940;2022-09-25T23:49:47;7.50;;;5.90;;
2854;SDS011;1435;49.472;10.940;2022-09-25T23:54:48;7.20;;;6.13;;
2854;SDS011;1435;49.472;10.940;2022-09-25T23:59:51;6.93;;;6.23;;
